createdAt,value
2023-01-03T00:00:14.622Z,101145.66
2023-01-03T00:02:43.637Z,101147.22
2023-01-03T00:05:12.768Z,101146.13
2023-01-03T00:07:42.913Z,101154.41
2023-01-03T00:10:12.589Z,101148.00
2023-01-03T00:12:42.001Z,101159.41
2023-01-03T00:15:08.982Z,101161.41
2023-01-03T00:17:35.604Z,101157.47
2023-01-03T00:20:02.683Z,101150.88
2023-01-03T00:22:31.407Z,101158.22
2023-01-03T00:25:00.329Z,101154.22
2023-01-03T00:27:30.820Z,101170.91
2023-01-03T00:30:00.011Z,101169.72
2023-01-03T00:32:26.724Z,101174.03
2023-01-03T00:34:53.417Z,101174.38
2023-01-03T00:37:22.602Z,101187.50
2023-01-03T00:39:49.171Z,101176.72
2023-01-03T00:42:15.761Z,101188.31
2023-01-03T00:44:42.383Z,101185.81
2023-01-03T00:47:08.970Z,101189.75
2023-01-03T00:49:35.652Z,101185.53
2023-01-03T00:52:02.310Z,101195.00
2023-01-03T00:54:29.005Z,101185.16
2023-01-03T00:56:55.565Z,101178.19
2023-01-03T00:59:24.611Z,101199.00
2023-01-03T01:01:56.924Z,101188.03
2023-01-03T01:04:24.769Z,101193.09
2023-01-03T01:06:53.026Z,101198.53
2023-01-03T01:09:21.769Z,101195.13
2023-01-03T01:11:48.500Z,101197.47
2023-01-03T01:14:21.233Z,100568.81
2023-01-03T01:16:50.237Z,101194.31
2023-01-03T01:19:17.451Z,101191.31
2023-01-03T01:21:44.322Z,101192.19
2023-01-03T01:24:15.878Z,101194.34
2023-01-03T01:26:44.335Z,101196.44
2023-01-03T01:29:11.854Z,101190.81
2023-01-03T01:31:38.647Z,101195.44
2023-01-03T01:34:05.328Z,101192.47
2023-01-03T01:36:33.512Z,101190.03
2023-01-03T01:39:03.519Z,101186.97
2023-01-03T01:41:51.400Z,101186.09
2023-01-03T01:44:39.917Z,101185.78
2023-01-03T01:47:11.985Z,101181.31
2023-01-03T01:49:38.622Z,101184.47
2023-01-03T01:52:05.268Z,101196.81
2023-01-03T01:54:31.876Z,101201.91
2023-01-03T01:57:00.615Z,101192.22
2023-01-03T01:59:28.464Z,101206.78
2023-01-03T02:01:58.128Z,101206.16
2023-01-03T02:04:29.501Z,101204.25
2023-01-03T02:06:56.415Z,101195.81
2023-01-03T02:09:23.115Z,101203.59
2023-01-03T02:12:18.670Z,101204.47
2023-01-03T02:15:08.143Z,101203.97
2023-01-03T02:17:53.546Z,101214.50
2023-01-03T02:20:21.812Z,101204.38
2023-01-03T02:22:51.500Z,101203.56
2023-01-03T02:25:21.784Z,101196.59
2023-01-03T02:28:00.932Z,101197.19
2023-01-03T02:30:39.997Z,101197.50
2023-01-03T02:33:10.612Z,101196.34
2023-01-03T02:35:56.012Z,101196.28
2023-01-03T02:38:45.745Z,101205.91
2023-01-03T02:41:21.771Z,101211.41
2023-01-03T02:44:04.314Z,101210.88
2023-01-03T02:46:33.066Z,101207.56
2023-01-03T02:49:10.590Z,101207.44
2023-01-03T02:51:38.375Z,101207.28
2023-01-03T02:54:05.757Z,101210.66
2023-01-03T02:56:40.404Z,101212.13
2023-01-03T02:59:11.118Z,101212.03
2023-01-03T03:01:37.898Z,101214.63
2023-01-03T03:04:06.904Z,101215.41
2023-01-03T03:06:39.418Z,101215.34
2023-01-03T03:09:06.156Z,101213.75
2023-01-03T03:11:55.099Z,101212.22
2023-01-03T03:14:27.868Z,101214.09
2023-01-03T03:16:54.992Z,101215.28
2023-01-03T03:19:50.609Z,101211.97
2023-01-03T03:22:42.290Z,101211.16
2023-01-03T03:25:10.269Z,101209.38
2023-01-03T03:27:58.420Z,101208.72
2023-01-03T03:30:25.105Z,101210.16
2023-01-03T03:32:52.253Z,101217.13
2023-01-03T03:35:19.583Z,101225.53
2023-01-03T03:37:52.155Z,101222.28
2023-01-03T03:40:37.442Z,101228.59
2023-01-03T03:43:24.614Z,101215.25
2023-01-03T03:45:51.253Z,101226.28
2023-01-03T03:48:20.393Z,101212.69
2023-01-03T03:50:49.953Z,101214.69
2023-01-03T03:53:16.711Z,101219.53
2023-01-03T03:55:59.162Z,101217.25
2023-01-03T03:58:34.021Z,101216.00
2023-01-03T04:01:03.761Z,101225.31
2023-01-03T04:03:30.480Z,101227.41
2023-01-03T04:05:58.164Z,101220.53
2023-01-03T04:08:24.983Z,101220.13
2023-01-03T04:10:51.670Z,101220.91
2023-01-03T04:13:18.248Z,101221.56
2023-01-03T04:15:44.842Z,101222.38
2023-01-03T04:18:11.593Z,101222.38
2023-01-03T04:20:38.184Z,101224.78
2023-01-03T04:23:04.785Z,101228.72
2023-01-03T04:25:31.387Z,101225.81
2023-01-03T04:28:03.720Z,101225.81
2023-01-03T04:30:32.688Z,101229.91
2023-01-03T04:32:59.305Z,101226.22
2023-01-03T04:35:28.143Z,101233.38
2023-01-03T04:37:54.896Z,101230.88
2023-01-03T04:40:21.438Z,101232.50
2023-01-03T04:43:06.913Z,101225.69
2023-01-03T04:45:35.635Z,101236.84
2023-01-03T04:48:05.076Z,101240.31
2023-01-03T04:50:34.138Z,101231.75
2023-01-03T04:53:00.821Z,101230.00
2023-01-03T04:55:27.353Z,101230.00
2023-01-03T04:57:53.984Z,101229.91
2023-01-03T05:00:26.072Z,101241.03
2023-01-03T05:02:53.123Z,101240.06
2023-01-03T05:05:19.827Z,101238.44
2023-01-03T05:07:46.380Z,101234.09
2023-01-03T05:10:15.576Z,101242.56
2023-01-03T05:12:42.260Z,101243.53
2023-01-03T05:15:11.177Z,101243.72
2023-01-03T05:17:37.815Z,101246.31
2023-01-03T05:20:27.821Z,101252.44
2023-01-03T05:23:13.127Z,101253.50
2023-01-03T05:26:06.113Z,101253.25
2023-01-03T05:28:32.889Z,101261.88
2023-01-03T05:30:59.620Z,101264.41
2023-01-03T05:33:26.446Z,101267.16
2023-01-03T05:35:53.227Z,101280.97
2023-01-03T05:38:24.954Z,101268.81
2023-01-03T05:40:51.622Z,101276.50
2023-01-03T05:43:18.228Z,101279.78
2023-01-03T05:45:48.642Z,101280.69
2023-01-03T05:48:15.332Z,101287.72
2023-01-03T05:50:41.905Z,101293.00
2023-01-03T05:53:10.638Z,101286.16
2023-01-03T05:55:37.841Z,101295.59
2023-01-03T05:58:07.293Z,101297.19
2023-01-03T06:00:34.145Z,101297.00
2023-01-03T06:03:00.899Z,101292.66
2023-01-03T06:05:28.017Z,101293.31
2023-01-03T06:07:58.447Z,101295.59
2023-01-03T06:10:27.892Z,101299.00
2023-01-03T06:12:54.882Z,101298.88
2023-01-03T06:15:21.612Z,101296.81
2023-01-03T06:18:02.544Z,101299.06
2023-01-03T06:20:29.685Z,101295.97
2023-01-03T06:22:58.779Z,101299.88
2023-01-03T06:25:25.902Z,101298.38
2023-01-03T06:27:55.516Z,101302.03
2023-01-03T06:30:22.394Z,101304.81
2023-01-03T06:32:54.483Z,101300.03
2023-01-03T06:35:21.148Z,101295.94
2023-01-03T06:37:47.772Z,101309.13
2023-01-03T06:40:19.669Z,101308.84
2023-01-03T06:42:48.041Z,101308.88
2023-01-03T06:45:33.349Z,101305.38
2023-01-03T06:48:22.433Z,101318.28
2023-01-03T06:51:07.792Z,101313.72
2023-01-03T06:53:40.572Z,101328.25
2023-01-03T06:56:07.542Z,101325.59
2023-01-03T06:58:36.646Z,101335.47
2023-01-03T07:01:05.029Z,101334.50
2023-01-03T07:03:32.309Z,101328.72
2023-01-03T07:05:59.424Z,101343.66
2023-01-03T07:08:28.249Z,101343.53
2023-01-03T07:10:55.153Z,101337.28
2023-01-03T07:13:43.516Z,101338.81
2023-01-03T07:16:16.817Z,101346.31
2023-01-03T07:18:55.043Z,101351.50
2023-01-03T07:21:23.028Z,101358.94
2023-01-03T07:23:49.750Z,101348.28
2023-01-03T07:26:16.678Z,101346.75
2023-01-03T07:28:43.342Z,101344.56
2023-01-03T07:31:10.177Z,101345.44
2023-01-03T07:33:39.566Z,101346.31
2023-01-03T07:36:11.589Z,101353.44
2023-01-03T07:38:39.398Z,101353.81
2023-01-03T07:41:08.169Z,101353.97
2023-01-03T07:43:38.190Z,101356.06
2023-01-03T07:46:07.772Z,101352.91
2023-01-03T07:48:34.915Z,101359.28
2023-01-03T07:51:04.367Z,101369.97
2023-01-03T07:53:33.943Z,101363.56
2023-01-03T07:56:07.679Z,101369.69
2023-01-03T07:58:37.656Z,101372.59
2023-01-03T08:01:05.246Z,101372.94
2023-01-03T08:03:32.009Z,101378.94
2023-01-03T08:06:05.089Z,101383.19
2023-01-03T08:08:34.033Z,101388.28
2023-01-03T08:11:19.509Z,101388.84
2023-01-03T08:13:48.737Z,101384.31
2023-01-03T08:16:18.479Z,101380.34
2023-01-03T08:18:45.577Z,101385.88
2023-01-03T08:21:14.863Z,101386.88
2023-01-03T08:23:41.565Z,101404.91
2023-01-03T08:26:08.253Z,101396.56
2023-01-03T08:28:37.748Z,101397.19
2023-01-03T08:31:18.943Z,101402.16
2023-01-03T08:33:49.731Z,101407.13
2023-01-03T08:36:16.413Z,101405.56
2023-01-03T08:38:44.496Z,101406.78
2023-01-03T08:41:11.148Z,101407.41
2023-01-03T08:43:38.284Z,101396.31
2023-01-03T08:46:07.800Z,101399.88
2023-01-03T08:48:34.538Z,101405.59
2023-01-03T08:51:05.885Z,101404.06
2023-01-03T08:53:32.564Z,101404.47
2023-01-03T08:55:59.339Z,101406.69
2023-01-03T08:58:31.409Z,101406.94
2023-01-03T09:01:02.486Z,101415.50
2023-01-03T09:03:29.351Z,101418.72
2023-01-03T09:05:59.316Z,101417.72
2023-01-03T09:08:28.377Z,101414.63
2023-01-03T09:10:55.198Z,101417.38
2023-01-03T09:13:27.329Z,101422.88
2023-01-03T09:16:01.205Z,101423.19
2023-01-03T09:18:27.804Z,101422.50
2023-01-03T09:20:54.422Z,101424.75
2023-01-03T09:23:26.525Z,101419.19
2023-01-03T09:25:55.689Z,101417.41
2023-01-03T09:28:22.280Z,101420.97
2023-01-03T09:30:49.433Z,101423.72
2023-01-03T09:33:16.139Z,101427.56
2023-01-03T09:35:42.909Z,101421.69
2023-01-03T09:38:14.276Z,101422.75
2023-01-03T09:40:45.366Z,101425.63
2023-01-03T09:43:16.480Z,101421.75
2023-01-03T09:45:48.440Z,101419.91
2023-01-03T09:48:21.154Z,101422.09
2023-01-03T09:51:25.922Z,101420.53
2023-01-03T09:54:00.824Z,101419.00
2023-01-03T09:56:48.681Z,101417.22
2023-01-03T09:59:35.577Z,101417.56
2023-01-03T10:02:52.741Z,101406.75
2023-01-03T10:05:21.627Z,101409.28
2023-01-03T10:07:49.369Z,101412.84
2023-01-03T10:10:22.208Z,101406.66
2023-01-03T10:12:59.150Z,101408.50
2023-01-03T10:15:35.625Z,101420.28
2023-01-03T10:18:11.444Z,101415.44
2023-01-03T10:20:50.887Z,101410.97
2023-01-03T10:23:17.581Z,101410.88
2023-01-03T10:25:44.779Z,101409.56
2023-01-03T10:28:26.001Z,101407.78
2023-01-03T10:31:08.343Z,101408.63
2023-01-03T10:33:36.989Z,101409.69
2023-01-03T10:36:06.178Z,101402.13
2023-01-03T10:38:43.542Z,101389.34
2023-01-03T10:41:16.039Z,101403.19
2023-01-03T10:43:45.699Z,101401.19
2023-01-03T10:46:19.388Z,101399.22
2023-01-03T10:51:42.506Z,101394.16
2023-01-03T10:54:18.750Z,101386.84
2023-01-03T10:56:46.083Z,101382.44
2023-01-03T10:59:15.457Z,101380.81
2023-01-03T11:01:57.852Z,101380.91
2023-01-03T11:04:27.099Z,101377.22
2023-01-03T11:07:01.369Z,101366.81
2023-01-03T11:09:31.430Z,101375.97
2023-01-03T11:12:06.512Z,101374.03
2023-01-03T11:14:33.308Z,101364.88
2023-01-03T11:17:04.739Z,101369.38
2023-01-03T11:19:32.941Z,101359.88
2023-01-03T11:22:14.491Z,101366.56
2023-01-03T11:25:03.304Z,101363.38
2023-01-03T11:27:35.524Z,101357.63
2023-01-03T11:30:14.625Z,101366.50
2023-01-03T11:32:44.622Z,101365.28
2023-01-03T11:35:24.059Z,101368.63
2023-01-03T11:38:07.082Z,101363.63
2023-01-03T11:41:03.159Z,101371.78
2023-01-03T11:43:29.947Z,101368.38
2023-01-03T11:45:58.969Z,101366.81
2023-01-03T11:48:30.175Z,101362.72
2023-01-03T11:51:02.929Z,101361.56
2023-01-03T11:53:36.771Z,101360.78
2023-01-03T11:56:08.727Z,101362.28
2023-01-03T11:59:01.901Z,101352.22
2023-01-03T12:01:37.076Z,101358.16
2023-01-03T12:04:24.979Z,101361.66
2023-01-03T12:06:51.693Z,101350.03
2023-01-03T12:09:39.737Z,101350.38
2023-01-03T12:12:09.525Z,101345.34
2023-01-03T12:14:38.574Z,101341.97
2023-01-03T12:17:09.743Z,101351.50
2023-01-03T12:19:41.741Z,101350.00
2023-01-03T12:22:20.776Z,101348.59
2023-01-03T12:24:56.784Z,101355.66
2023-01-03T12:27:36.430Z,101340.06
2023-01-03T12:30:03.150Z,101339.31
2023-01-03T12:32:34.997Z,101333.50
2023-01-03T12:35:12.176Z,101333.72
2023-01-03T12:37:40.406Z,101337.81
2023-01-03T12:40:27.570Z,101342.06
2023-01-03T12:43:04.779Z,101337.31
2023-01-03T12:45:34.700Z,101334.94
2023-01-03T12:48:07.263Z,101341.69
2023-01-03T12:50:49.481Z,101342.22
2023-01-03T12:53:16.083Z,101341.38
2023-01-03T12:55:45.887Z,101346.59
2023-01-03T12:58:15.612Z,101345.88
2023-01-03T13:00:44.697Z,101352.69
2023-01-03T13:03:19.234Z,101347.16
2023-01-03T13:05:50.486Z,101344.88
2023-01-03T13:08:29.382Z,101349.69
2023-01-03T13:10:57.118Z,101345.06
2023-01-03T13:13:23.751Z,101344.97
2023-01-03T13:15:53.339Z,101356.63
2023-01-03T13:18:25.477Z,101348.25
2023-01-03T13:20:53.121Z,101358.44
2023-01-03T13:23:40.071Z,101353.16
2023-01-03T13:26:10.501Z,101355.03
2023-01-03T13:28:37.607Z,101356.13
2023-01-03T13:31:14.331Z,101360.28
2023-01-03T13:34:00.107Z,101361.31
2023-01-03T13:36:29.151Z,101367.59
2023-01-03T13:38:56.650Z,101363.78
2023-01-03T13:41:30.626Z,101359.03
2023-01-03T13:44:09.609Z,101363.72
2023-01-03T13:46:38.710Z,101356.47
2023-01-03T13:49:06.445Z,101365.06
2023-01-03T13:51:41.186Z,101363.22
2023-01-03T13:54:10.901Z,101354.47
2023-01-03T13:56:46.176Z,101363.97
2023-01-03T13:59:18.965Z,101368.19
2023-01-03T14:02:07.389Z,101366.41
2023-01-03T14:04:43.417Z,101368.19
2023-01-03T14:07:18.485Z,101370.44
2023-01-03T14:09:47.536Z,101369.84
2023-01-03T14:12:40.958Z,101368.75
2023-01-03T14:15:26.087Z,101374.16
2023-01-03T14:17:57.201Z,101375.78
2023-01-03T14:20:30.810Z,101373.84
2023-01-03T14:22:57.523Z,101380.59
2023-01-03T14:25:36.669Z,101377.19
2023-01-03T14:28:21.011Z,101376.81
2023-01-03T14:30:59.974Z,101392.91
2023-01-03T14:33:30.294Z,101397.28
2023-01-03T14:36:13.797Z,101402.47
2023-01-03T14:38:45.788Z,101405.72
2023-01-03T14:41:41.733Z,101404.75
2023-01-03T14:44:11.142Z,101398.75
2023-01-03T14:46:42.145Z,101398.59
2023-01-03T14:49:16.060Z,101402.50
2023-01-03T14:51:42.686Z,101400.41
2023-01-03T14:54:12.358Z,101397.97
2023-01-03T14:56:39.001Z,101394.34
2023-01-03T14:59:07.087Z,101396.69
2023-01-03T15:01:33.994Z,101402.22
2023-01-03T15:04:00.884Z,101400.78
2023-01-03T15:06:31.705Z,101401.81
2023-01-03T15:09:00.344Z,101401.31
2023-01-03T15:11:28.949Z,101405.94
2023-01-03T15:14:08.150Z,101413.00
2023-01-03T15:16:36.934Z,101406.28
2023-01-03T15:19:04.851Z,101419.31
2023-01-03T15:21:37.651Z,101423.44
2023-01-03T15:24:07.907Z,101422.81
2023-01-03T15:26:43.039Z,101432.53
2023-01-03T15:29:14.476Z,101420.53
2023-01-03T15:31:53.558Z,101424.09
2023-01-03T15:34:29.601Z,101426.84
2023-01-03T15:37:10.254Z,101432.72
2023-01-03T15:39:41.902Z,101432.53
2023-01-03T15:42:44.011Z,101450.03
2023-01-03T15:45:18.568Z,101440.06
2023-01-03T15:47:45.568Z,101440.06
2023-01-03T15:50:16.467Z,101440.94
2023-01-03T15:52:43.722Z,101444.75
2023-01-03T15:55:12.634Z,101443.16
2023-01-03T15:57:39.619Z,101460.47
2023-01-03T16:00:06.921Z,101455.56
2023-01-03T16:02:38.590Z,101466.72
2023-01-03T16:05:07.585Z,101463.66
2023-01-03T16:07:34.223Z,101458.69
2023-01-03T16:10:03.451Z,101464.94
2023-01-03T16:12:34.455Z,101464.88
2023-01-03T16:15:03.949Z,101469.78
2023-01-03T16:17:33.028Z,101470.84
2023-01-03T16:19:59.590Z,101473.56
2023-01-03T16:22:35.523Z,101468.25
2023-01-03T16:25:03.234Z,101465.84
2023-01-03T16:27:29.848Z,101472.16
2023-01-03T16:29:59.155Z,101475.88
2023-01-03T16:32:28.018Z,101483.94
2023-01-03T16:34:56.063Z,101475.00
2023-01-03T16:37:22.656Z,101482.28
2023-01-03T16:39:49.346Z,101486.59
2023-01-03T16:42:16.411Z,101481.34
2023-01-03T16:44:43.975Z,101485.69
2023-01-03T16:47:17.557Z,101490.38
2023-01-03T16:49:47.352Z,101488.84
2023-01-03T16:52:14.538Z,101486.19
2023-01-03T16:54:41.491Z,101493.41
2023-01-03T16:57:10.076Z,101490.16
2023-01-03T16:59:41.811Z,101497.63
2023-01-03T17:02:11.580Z,101502.25
2023-01-03T17:04:38.423Z,101496.28
2023-01-03T17:07:05.123Z,101502.56
2023-01-03T17:09:32.312Z,101501.59
2023-01-03T17:11:59.068Z,101512.03
2023-01-03T17:14:26.371Z,101510.53
2023-01-03T17:16:53.043Z,101513.41
2023-01-03T17:20:01.965Z,101516.75
2023-01-03T17:22:15.040Z,101511.09
2023-01-03T17:24:44.278Z,101521.78
2023-01-03T17:27:25.024Z,101523.00
2023-01-03T17:29:59.099Z,101518.19
2023-01-03T17:32:29.015Z,101519.09
2023-01-03T17:34:58.073Z,101519.25
2023-01-03T17:37:26.876Z,101520.41
2023-01-03T17:39:56.989Z,101532.72
2023-01-03T17:42:26.700Z,101531.06
2023-01-03T17:45:14.024Z,101535.31
2023-01-03T17:47:59.995Z,101544.38
2023-01-03T17:50:27.047Z,101541.94
2023-01-03T17:52:56.593Z,101545.31
2023-01-03T17:55:27.463Z,101547.31
2023-01-03T17:57:54.612Z,101550.00
2023-01-03T18:00:24.811Z,101549.41
2023-01-03T18:02:55.138Z,101559.78
2023-01-03T18:05:27.342Z,101551.94
2023-01-03T18:07:58.785Z,101554.84
2023-01-03T18:10:37.424Z,101560.88
2023-01-03T18:13:14.795Z,101560.78
2023-01-03T18:15:41.479Z,101554.38
2023-01-03T18:18:09.886Z,101561.44
2023-01-03T18:20:39.614Z,101558.00
2023-01-03T18:23:12.253Z,101562.53
2023-01-03T18:25:38.946Z,101561.00
2023-01-03T18:28:08.610Z,101560.72
2023-01-03T18:30:35.462Z,101564.84
2023-01-03T18:33:02.162Z,101566.28
2023-01-03T18:35:37.529Z,101565.56
2023-01-03T18:38:04.989Z,101570.75
2023-01-03T18:40:31.632Z,101571.66
2023-01-03T18:43:08.275Z,101576.13
2023-01-03T18:45:38.315Z,101582.19
2023-01-03T18:48:05.227Z,101573.41
2023-01-03T18:50:32.040Z,101578.44
2023-01-03T18:53:04.365Z,101574.72
2023-01-03T18:55:32.837Z,101568.94
2023-01-03T18:58:14.606Z,101574.56
2023-01-03T19:00:48.793Z,101573.91
2023-01-03T19:03:20.486Z,101564.50
2023-01-03T19:05:47.597Z,101564.97
2023-01-03T19:08:17.137Z,101560.88
2023-01-03T19:10:44.016Z,101571.72
2023-01-03T19:13:15.527Z,101567.09
2023-01-03T19:15:42.255Z,101570.34
2023-01-03T19:18:11.361Z,101568.56
2023-01-03T19:20:37.961Z,101571.66
2023-01-03T19:23:04.692Z,101570.94
2023-01-03T19:25:34.157Z,101580.72
2023-01-03T19:28:01.786Z,101576.84
2023-01-03T19:30:46.630Z,101579.16
2023-01-03T19:33:14.413Z,101578.13
2023-01-03T19:35:41.301Z,101579.00
2023-01-03T19:38:09.601Z,101579.09
2023-01-03T19:40:36.586Z,101579.16
2023-01-03T19:43:05.796Z,101576.16
2023-01-03T19:45:39.436Z,101580.03
2023-01-03T19:48:15.268Z,101585.22
2023-01-03T19:50:41.874Z,101591.47
2023-01-03T19:53:08.488Z,101591.47
2023-01-03T19:55:35.600Z,101593.44
2023-01-03T19:58:03.621Z,101578.25
2023-01-03T20:00:32.318Z,101580.47
2023-01-03T20:03:01.000Z,101589.81
2023-01-03T20:05:35.342Z,101582.34
2023-01-03T20:08:11.933Z,101590.88
2023-01-03T20:10:39.871Z,101587.72
2023-01-03T20:13:06.678Z,101586.16
2023-01-03T20:15:33.972Z,101588.03
2023-01-03T20:18:00.718Z,101584.28
2023-01-03T20:20:30.840Z,101589.47
2023-01-03T20:23:08.558Z,101589.66
2023-01-03T20:25:37.552Z,101585.56
2023-01-03T20:28:06.557Z,101585.75
2023-01-03T20:30:39.285Z,101597.16
2023-01-03T20:33:08.811Z,101598.16
2023-01-03T20:38:27.660Z,101599.69
2023-01-03T20:40:54.741Z,101598.41
2023-01-03T20:43:21.479Z,101605.78
2023-01-03T20:45:49.588Z,101603.19
2023-01-03T20:48:22.730Z,101598.88
2023-01-03T20:50:52.001Z,101601.78
2023-01-03T20:53:23.101Z,101592.41
2023-01-03T20:55:50.044Z,101589.28
2023-01-03T20:58:20.207Z,101591.22
2023-01-03T21:00:47.507Z,101589.78
2023-01-03T21:03:16.681Z,101582.25
2023-01-03T21:05:43.436Z,101581.69
2023-01-03T21:08:33.288Z,101586.31
2023-01-03T21:10:59.937Z,101581.47
2023-01-03T21:13:26.703Z,101585.13
2023-01-03T21:15:55.849Z,101588.03
2023-01-03T21:18:22.564Z,101591.97
2023-01-03T21:20:51.645Z,101582.00
2023-01-03T21:23:23.222Z,101596.28
2023-01-03T21:25:52.355Z,101596.03
2023-01-03T21:28:18.924Z,101586.88
2023-01-03T21:30:47.957Z,101588.81
2023-01-03T21:33:16.284Z,101589.00
2023-01-03T21:35:43.285Z,101597.09
2023-01-03T21:38:12.574Z,101598.09
2023-01-03T21:40:42.016Z,101592.56
2023-01-03T21:43:10.715Z,101594.34
2023-01-03T21:45:43.941Z,101594.50
2023-01-03T21:48:14.361Z,101598.25
2023-01-03T21:50:46.965Z,101601.47
2023-01-03T21:53:14.470Z,101600.75
2023-01-03T21:55:41.266Z,101605.22
2023-01-03T21:58:14.107Z,101608.81
2023-01-03T22:00:41.060Z,101611.31
2023-01-03T22:03:28.969Z,101614.63
2023-01-03T22:06:04.604Z,101618.91
2023-01-03T22:08:31.321Z,101616.25
2023-01-03T22:10:57.928Z,101617.81
2023-01-03T22:13:27.718Z,101619.50
2023-01-03T22:15:56.737Z,101621.13
2023-01-03T22:18:23.310Z,101618.25
2023-01-03T22:20:52.273Z,101609.28
2023-01-03T22:23:20.007Z,101611.00
2023-01-03T22:25:49.055Z,101612.59
2023-01-03T22:28:15.923Z,101614.22
2023-01-03T22:30:42.890Z,101608.31
2023-01-03T22:33:09.548Z,101604.75
2023-01-03T22:35:36.862Z,101607.53
2023-01-03T22:38:03.539Z,101606.88
2023-01-03T22:40:32.752Z,101615.88
2023-01-03T22:43:04.462Z,101617.31
2023-01-03T22:45:31.107Z,101615.69
2023-01-03T22:48:02.926Z,101614.81
2023-01-03T22:50:29.501Z,101621.22
2023-01-03T22:52:58.924Z,101623.09
2023-01-03T22:55:31.792Z,101630.63
2023-01-03T22:58:01.461Z,101617.31
2023-01-03T23:00:28.260Z,101620.09
2023-01-03T23:02:54.905Z,101626.22
2023-01-03T23:05:21.688Z,101623.47
2023-01-03T23:07:50.756Z,101625.00
2023-01-03T23:10:17.460Z,101630.56
2023-01-03T23:12:58.846Z,101635.38
2023-01-03T23:15:26.007Z,101638.34
2023-01-03T23:17:58.852Z,101635.75
2023-01-03T23:20:29.389Z,101634.69
2023-01-03T23:22:59.936Z,101633.25
2023-01-03T23:25:26.841Z,101635.47
2023-01-03T23:27:53.509Z,101630.47
2023-01-03T23:30:20.194Z,101622.31
2023-01-03T23:32:46.882Z,101618.94
2023-01-03T23:35:18.815Z,101619.72
2023-01-03T23:37:47.303Z,101616.44
2023-01-03T23:40:14.117Z,101612.78
2023-01-03T23:42:43.309Z,101618.91
2023-01-03T23:45:10.332Z,101621.13
2023-01-03T23:47:39.448Z,101614.00
2023-01-03T23:50:08.670Z,101615.19
2023-01-03T23:52:37.625Z,101619.28
2023-01-03T23:55:12.669Z,101615.44
2023-01-03T23:57:44.383Z,101615.94
